Time;durP1;ratioP1;P1;durP2;ratioP2;P2;SDS_P1;SDS_P2;PMS_P1;PMS_P2;Temp;Humidity;BMP_temperature;BMP_pressure;BME280_temperature;BME280_humidity;BME280_pressure;Samples;Min_cycle;Max_cycle;Signal;HPM_P1;HPM_P2
2021/06/30 17:53:42;;;;;;;4.28;1.80;;;29.00;46.10;;;;;;5059798;28;20390;-74
2021/06/30 17:56:08;;;;;;;2.05;1.05;;;28.70;46.70;;;;;;5060417;28;20078;-74
2021/06/30 17:58:34;;;;;;;3.53;1.38;;;28.70;47.10;;;;;;5061467;28;20024;-75
2021/06/30 18:01:00;;;;;;;4.93;1.20;;;28.50;46.60;;;;;;5059361;28;20082;-74
2021/06/30 18:03:28;;;;;;;10.95;1.52;;;28.40;47.00;;;;;;5061859;28;20846;-74
2021/06/30 18:05:53;;;;;;;2.58;1.10;;;28.20;47.00;;;;;;5059478;28;20039;-74
2021/06/30 18:08:19;;;;;;;2.50;1.30;;;28.10;47.40;;;;;;5062462;28;20028;-74
2021/06/30 18:10:45;;;;;;;2.40;1.73;;;27.90;47.60;;;;;;5061129;28;20025;-75
2021/06/30 18:13:12;;;;;;;5.97;1.90;;;28.00;47.80;;;;;;5062099;28;20100;-74
2021/06/30 18:15:39;;;;;;;2.63;1.95;;;28.00;47.40;;;;;;5059587;28;20032;-74
2021/06/30 18:18:05;;;;;;;3.92;1.45;;;27.80;47.60;;;;;;5062658;28;20063;-75
2021/06/30 18:20:31;;;;;;;1.55;1.17;;;27.80;47.90;;;;;;5060592;28;20020;-75
2021/06/30 18:22:57;;;;;;;1.98;1.38;;;27.60;47.50;;;;;;5061953;28;20112;-75
2021/06/30 18:25:23;;;;;;;1.13;0.88;;;27.60;47.90;;;;;;5060053;28;20443;-74
2021/06/30 18:27:50;;;;;;;4.88;1.15;;;27.50;47.90;;;;;;5062076;28;20098;-75
2021/06/30 18:30:16;;;;;;;1.58;1.13;;;27.30;47.80;;;;;;5060262;28;20086;-75
2021/06/30 18:32:43;;;;;;;1.40;1.00;;;27.40;48.90;;;;;;5058978;28;20422;-74
2021/06/30 18:35:10;;;;;;;3.58;1.48;;;27.30;48.30;;;;;;5061000;28;20013;-74
2021/06/30 18:37:37;;;;;;;2.40;1.17;;;27.20;48.10;;;;;;5062015;28;20124;-75
2021/06/30 18:40:03;;;;;;;2.50;1.17;;;27.10;48.20;;;;;;5060420;28;20021;-75
2021/06/30 18:42:29;;;;;;;3.97;1.40;;;27.00;48.40;;;;;;5059906;28;20035;-75
2021/06/30 18:44:55;;;;;;;3.05;1.00;;;26.90;48.20;;;;;;5059068;28;20092;-76
2021/06/30 18:47:21;;;;;;;2.55;1.42;;;26.90;48.70;;;;;;5060111;28;20024;-75
2021/06/30 18:49:47;;;;;;;4.10;1.08;;;26.80;48.60;;;;;;5059496;28;20036;-75
2021/06/30 18:52:13;;;;;;;2.50;1.45;;;26.80;49.70;;;;;;5059248;28;20098;-76
2021/06/30 18:54:39;;;;;;;1.60;1.00;;;26.80;48.90;;;;;;5059625;28;20029;-75
2021/06/30 18:57:05;;;;;;;4.97;1.92;;;26.70;49.00;;;;;;5058314;28;20394;-75
2021/06/30 18:59:31;;;;;;;1.83;0.93;;;26.60;49.10;;;;;;5057689;28;20043;-75
2021/06/30 19:01:57;;;;;;;3.13;1.10;;;26.60;49.10;;;;;;5060346;28;20017;-75
2021/06/30 19:04:24;;;;;;;2.45;0.68;;;26.50;49.00;;;;;;5052587;28;20044;-75
2021/06/30 19:06:51;;;;;;;1.35;1.05;;;26.30;49.10;;;;;;5048667;28;20122;-75
2021/06/30 19:09:18;;;;;;;3.28;0.90;;;26.20;50.90;;;;;;5050613;28;20028;-76
2021/06/30 19:11:44;;;;;;;5.00;1.05;;;26.20;49.80;;;;;;5049233;28;20365;-76
2021/06/30 19:14:10;;;;;;;0.98;0.88;;;26.10;49.80;;;;;;5046961;28;20079;-76
2021/06/30 19:16:36;;;;;;;1.67;1.20;;;26.10;49.80;;;;;;5049084;28;20672;-77
2021/06/30 19:19:05;;;;;;;1.27;0.75;;;26.00;49.90;;;;;;5051161;28;20032;-77
2021/06/30 19:21:32;;;;;;;0.80;0.80;;;25.90;50.10;;;;;;5052545;28;20032;-77
2021/06/30 19:23:58;;;;;;;1.65;0.90;;;25.80;50.60;;;;;;5051160;28;20040;-77
2021/06/30 19:26:24;;;;;;;1.63;0.98;;;25.70;50.70;;;;;;5055101;28;20483;-77
2021/06/30 19:28:50;;;;;;;11.43;1.38;;;25.60;50.60;;;;;;5052895;28;20036;-77
2021/06/30 19:31:16;;;;;;;1.23;1.00;;;25.50;50.70;;;;;;5050560;28;20051;-77
2021/06/30 19:33:41;;;;;;;1.23;0.90;;;25.50;51.00;;;;;;5052513;28;20024;-77
2021/06/30 19:36:07;;;;;;;1.23;0.90;;;25.50;50.80;;;;;;5052618;28;20048;-77
2021/06/30 19:38:33;;;;;;;1.33;1.02;;;25.30;51.00;;;;;;5050757;28;20028;-77
2021/06/30 19:40:59;;;;;;;1.58;0.80;;;25.30;51.30;;;;;;5049629;28;20106;-77
2021/06/30 19:43:25;;;;;;;2.85;1.17;;;25.20;51.00;;;;;;5031009;28;20468;-77
2021/06/30 19:45:51;;;;;;;1.40;1.00;;;25.10;51.10;;;;;;5033667;28;20475;-77
2021/06/30 19:48:17;;;;;;;2.17;0.90;;;25.20;51.20;;;;;;5050714;28;20033;-77
2021/06/30 19:50:45;;;;;;;1.63;0.82;;;25.20;51.00;;;;;;5051496;28;20056;-77
2021/06/30 19:53:11;;;;;;;1.20;0.60;;;25.10;50.70;;;;;;5050291;28;20136;-76
2021/06/30 19:55:41;;;;;;;1.00;0.90;;;25.10;50.50;;;;;;5052138;28;20178;-76
2021/06/30 19:58:07;;;;;;;0.85;0.73;;;25.00;50.50;;;;;;5051774;28;20519;-77
2021/06/30 20:00:34;;;;;;;3.17;0.90;;;25.00;50.60;;;;;;5050001;28;20536;-77
2021/06/30 20:03:01;;;;;;;0.65;0.65;;;25.00;50.50;;;;;;5052051;28;20683;-76
2021/06/30 20:05:27;;;;;;;1.75;0.70;;;24.90;50.60;;;;;;5049954;28;20617;-76
2021/06/30 20:07:54;;;;;;;1.30;0.90;;;24.90;50.90;;;;;;5050281;28;20044;-76
2021/06/30 20:10:20;;;;;;;1.42;0.60;;;24.80;50.40;;;;;;5051630;28;20742;-76
2021/06/30 20:12:46;;;;;;;0.98;0.70;;;24.70;50.50;;;;;;5043133;28;20025;-76
2021/06/30 20:15:14;;;;;;;3.70;0.75;;;24.70;50.70;;;;;;5050690;28;20013;-76
2021/06/30 20:17:41;;;;;;;0.60;0.52;;;24.60;50.50;;;;;;5049890;28;20029;-76
2021/06/30 20:20:07;;;;;;;1.05;0.60;;;24.50;50.40;;;;;;5051037;28;20031;-76
2021/06/30 20:22:33;;;;;;;0.60;0.60;;;24.60;50.20;;;;;;5051218;28;20020;-76
2021/06/30 20:25:00;;;;;;;0.95;0.75;;;24.60;50.20;;;;;;5052741;28;20463;-76
2021/06/30 20:27:25;;;;;;;2.72;0.90;;;24.60;50.10;;;;;;5053677;28;20060;-76
2021/06/30 20:29:51;;;;;;;0.88;0.65;;;24.60;50.10;;;;;;5054057;28;20049;-76
2021/06/30 20:32:17;;;;;;;1.42;0.80;;;24.50;50.00;;;;;;5052253;28;20036;-76
2021/06/30 20:34:43;;;;;;;0.93;0.70;;;24.40;50.30;;;;;;5053619;28;20029;-77
2021/06/30 20:37:09;;;;;;;2.35;0.50;;;24.40;50.30;;;;;;5053773;28;20446;-77
2021/06/30 20:39:35;;;;;;;0.52;0.52;;;24.50;50.30;;;;;;5053594;28;20053;-76
2021/06/30 20:42:00;;;;;;;1.45;0.77;;;24.40;50.30;;;;;;5041216;28;20030;-75
2021/06/30 20:44:27;;;;;;;0.73;0.40;;;24.40;50.50;;;;;;5049510;28;20083;-75
2021/06/30 20:46:55;;;;;;;0.55;0.55;;;24.30;50.40;;;;;;5051946;28;20025;-75
2021/06/30 20:49:21;;;;;;;0.77;0.77;;;24.30;50.40;;;;;;5048583;28;20021;-75
2021/06/30 20:51:48;;;;;;;0.63;0.63;;;24.20;50.70;;;;;;5051570;28;20052;-75
2021/06/30 20:54:16;;;;;;;0.60;0.60;;;24.10;50.60;;;;;;5049231;28;20496;-75
2021/06/30 20:56:42;;;;;;;2.55;0.60;;;24.10;51.00;;;;;;5049597;28;20033;-75
2021/06/30 20:59:08;;;;;;;0.70;0.70;;;24.10;50.70;;;;;;5046771;28;20041;-75
2021/06/30 21:01:35;;;;;;;0.88;0.57;;;24.10;51.00;;;;;;5048280;28;20375;-75
2021/06/30 21:04:03;;;;;;;1.30;0.60;;;24.10;50.90;;;;;;5043384;28;20017;-75
2021/06/30 21:06:30;;;;;;;2.50;1.00;;;24.10;51.00;;;;;;5046589;28;20041;-74
2021/06/30 21:08:56;;;;;;;1.13;1.02;;;24.00;50.70;;;;;;5048141;28;20039;-74
2021/06/30 21:11:23;;;;;;;0.65;0.60;;;24.10;51.00;;;;;;5047270;28;20067;-74
2021/06/30 21:13:50;;;;;;;5.20;0.90;;;24.00;50.80;;;;;;5048107;28;20673;-74
2021/06/30 21:16:16;;;;;;;0.85;0.57;;;24.00;50.40;;;;;;5049029;28;20402;-74
2021/06/30 21:18:42;;;;;;;0.80;0.80;;;24.00;50.40;;;;;;5048872;28;20017;-74
2021/06/30 21:21:07;;;;;;;2.10;0.60;;;24.00;50.50;;;;;;5047769;28;20031;-74
2021/06/30 21:23:33;;;;;;;1.85;0.60;;;24.00;50.20;;;;;;5048502;28;20029;-74
2021/06/30 21:26:01;;;;;;;2.92;0.88;;;24.10;50.30;;;;;;5048907;28;20560;-75
2021/06/30 21:28:27;;;;;;;0.73;0.60;;;24.00;50.20;;;;;;5047132;28;20056;-74
2021/06/30 21:30:54;;;;;;;3.05;1.00;;;24.00;50.10;;;;;;5048885;28;20548;-74
2021/06/30 21:33:27;;;;;;;0.85;0.60;;;24.00;50.10;;;;;;5048034;28;20021;-74
2021/06/30 21:35:54;;;;;;;0.35;0.35;;;24.00;50.10;;;;;;5048343;28;20025;-74
2021/06/30 21:38:21;;;;;;;0.85;0.55;;;24.10;50.10;;;;;;5049681;28;20386;-74
2021/06/30 21:40:48;;;;;;;2.00;0.50;;;24.10;50.20;;;;;;5047055;28;20027;-75
2021/06/30 21:43:17;;;;;;;2.58;0.52;;;24.00;50.30;;;;;;5044616;28;20386;-75
2021/06/30 21:45:42;;;;;;;0.60;0.60;;;24.00;50.10;;;;;;5046985;28;20029;-75
2021/06/30 21:48:08;;;;;;;0.50;0.50;;;23.90;50.30;;;;;;5048852;28;20032;-76
2021/06/30 21:50:34;;;;;;;2.15;0.80;;;23.90;50.40;;;;;;5046813;28;20029;-77
2021/06/30 21:53:00;;;;;;;0.82;0.82;;;23.80;50.10;;;;;;5047152;28;20045;-76
2021/06/30 21:55:55;;;;;;;0.95;0.82;;;23.80;50.20;;;;;;5047831;28;20387;-76
2021/06/30 21:58:21;;;;;;;1.75;0.90;;;23.80;50.10;;;;;;5046742;28;20055;-76
2021/06/30 22:00:46;;;;;;;0.98;0.80;;;23.80;50.10;;;;;;5047462;28;20055;-75
2021/06/30 22:03:12;;;;;;;1.48;1.02;;;23.80;50.00;;;;;;5046677;28;20078;-76
2021/06/30 22:05:39;;;;;;;0.80;0.80;;;23.70;49.70;;;;;;5048546;28;20032;-76
2021/06/30 22:08:05;;;;;;;0.73;0.70;;;23.70;49.70;;;;;;5047515;28;20055;-79
2021/06/30 22:10:31;;;;;;;0.98;0.60;;;23.70;49.80;;;;;;5048659;28;20061;-78
2021/06/30 22:12:56;;;;;;;1.60;0.73;;;23.70;49.60;;;;;;5049358;28;20127;-77
2021/06/30 22:15:22;;;;;;;1.17;0.80;;;23.70;49.80;;;;;;5047865;28;20363;-77
2021/06/30 22:17:49;;;;;;;1.55;0.82;;;23.70;49.80;;;;;;5048003;28;20049;-77
2021/06/30 22:20:17;;;;;;;0.90;0.70;;;23.60;49.70;;;;;;5048371;28;20026;-76
2021/06/30 22:23:08;;;;;;;0.60;0.60;;;23.70;49.80;;;;;;5048702;28;20021;-76
2021/06/30 22:25:32;;;;;;;0.50;0.50;;;23.60;49.80;;;;;;5048373;28;20056;-77
2021/06/30 22:27:58;;;;;;;1.20;0.60;;;23.60;49.90;;;;;;5048060;28;20064;-76
2021/06/30 22:30:23;;;;;;;1.98;0.60;;;23.60;50.10;;;;;;5049401;28;20098;-76
2021/06/30 22:32:49;;;;;;;0.55;0.55;;;23.50;50.00;;;;;;5048860;28;20036;-76
2021/06/30 22:35:15;;;;;;;3.03;0.55;;;23.50;50.00;;;;;;5049436;28;20029;-75
2021/06/30 22:37:41;;;;;;;0.82;0.60;;;23.60;50.10;;;;;;5052202;28;20127;-77
2021/06/30 22:40:07;;;;;;;0.80;0.63;;;23.50;50.00;;;;;;5053485;28;20029;-76
2021/06/30 22:42:33;;;;;;;0.60;0.40;;;23.50;50.20;;;;;;5054923;28;20028;-76
2021/06/30 22:44:59;;;;;;;0.60;0.60;;;23.40;50.30;;;;;;5055274;28;20033;-76
2021/06/30 22:47:25;;;;;;;0.60;0.60;;;23.40;50.30;;;;;;5055028;28;20032;-76
2021/06/30 22:49:51;;;;;;;1.23;0.70;;;23.40;50.30;;;;;;5055401;28;20395;-76
2021/06/30 22:52:17;;;;;;;0.60;0.60;;;23.30;50.30;;;;;;5055009;28;20051;-76
2021/06/30 22:54:43;;;;;;;2.47;0.45;;;23.30;50.00;;;;;;5055245;28;20104;-76
2021/06/30 22:57:10;;;;;;;0.50;0.50;;;23.30;50.10;;;;;;5055054;28;20108;-76
2021/06/30 22:59:36;;;;;;;1.58;0.43;;;23.30;50.30;;;;;;5054580;28;20071;-76
2021/06/30 23:02:02;;;;;;;0.60;0.60;;;23.30;50.40;;;;;;5054488;28;20025;-76
2021/06/30 23:04:29;;;;;;;0.68;0.40;;;23.20;50.10;;;;;;5053716;28;20052;-76
2021/06/30 23:06:55;;;;;;;1.15;0.50;;;23.30;50.70;;;;;;5055228;28;20039;-76
2021/06/30 23:09:21;;;;;;;2.00;0.50;;;23.20;50.40;;;;;;5053589;28;20111;-76
2021/06/30 23:11:50;;;;;;;1.17;0.38;;;23.30;50.30;;;;;;5047517;28;20467;-76
2021/06/30 23:14:16;;;;;;;1.38;1.15;;;23.30;50.10;;;;;;5053226;28;20059;-76
2021/06/30 23:16:42;;;;;;;1.90;0.52;;;23.30;50.00;;;;;;5055405;28;20048;-76
2021/06/30 23:19:08;;;;;;;0.20;0.20;;;23.20;49.80;;;;;;5053525;28;20025;-76
2021/06/30 23:21:35;;;;;;;0.65;0.45;;;23.30;50.00;;;;;;5055432;28;20451;-76
2021/06/30 23:24:01;;;;;;;2.30;0.40;;;23.20;49.90;;;;;;5054570;28;20083;-76
2021/06/30 23:26:27;;;;;;;2.65;0.30;;;23.20;50.00;;;;;;5055325;28;20078;-76
2021/06/30 23:28:53;;;;;;;0.40;0.40;;;23.20;50.00;;;;;;5054552;28;20021;-76
2021/06/30 23:31:19;;;;;;;0.30;0.30;;;23.20;50.10;;;;;;5054788;28;20021;-75
2021/06/30 23:33:44;;;;;;;0.25;0.25;;;23.30;50.10;;;;;;5054962;28;20032;-75
2021/06/30 23:36:10;;;;;;;0.38;0.38;;;23.20;50.00;;;;;;5055010;28;20025;-75
2021/06/30 23:38:36;;;;;;;0.30;0.30;;;23.30;49.90;;;;;;5053557;28;20025;-75
2021/06/30 23:41:03;;;;;;;0.30;0.30;;;23.20;49.90;;;;;;5054736;28;20021;-75
2021/06/30 23:43:30;;;;;;;0.63;0.30;;;23.20;50.00;;;;;;5054375;28;20087;-75
2021/06/30 23:45:56;;;;;;;0.50;0.50;;;23.20;50.30;;;;;;5053419;28;20375;-75
2021/06/30 23:48:21;;;;;;;0.45;0.43;;;23.10;50.30;;;;;;5054672;28;20036;-76
2021/06/30 23:50:47;;;;;;;0.63;0.30;;;23.10;50.50;;;;;;5054580;28;20036;-75
2021/06/30 23:53:13;;;;;;;0.40;0.40;;;23.10;50.50;;;;;;5053155;28;20099;-75
2021/06/30 23:55:39;;;;;;;0.40;0.40;;;23.10;50.60;;;;;;5054407;28;20410;-75
2021/06/30 23:58:05;;;;;;;0.28;0.28;;;23.10;50.70;;;;;;5054144;28;20025;-75
